Time;durP1;ratioP1;P1;durP2;ratioP2;P2;SDS_P1;SDS_P2;PMS_P1;PMS_P2;Temp;Humidity;BMP_temperature;BMP_pressure;BME280_temperature;BME280_humidity;BME280_pressure;Samples;Min_cycle;Max_cycle;Signal;HPM_P1;HPM_P2
2021/05/16 00:01:10;;;;;;;19.58;15.45;;;;;;;-143.98;100.00;68091.63;6279123;22;20050;-83
2021/05/16 00:03:38;;;;;;;19.27;15.35;;;;;;;-143.98;100.00;68091.63;6279129;22;20106;-84
2021/05/16 00:06:05;;;;;;;18.48;15.18;;;;;;;-143.98;100.00;68091.63;6280291;22;20346;-83
2021/05/16 00:08:32;;;;;;;21.83;15.77;;;;;;;-143.98;100.00;68091.63;6254713;22;20071;-83
2021/05/16 00:11:00;;;;;;;19.15;14.90;;;;;;;-143.98;100.00;68091.63;6253499;22;20023;-83
2021/05/16 00:13:28;;;;;;;23.05;15.52;;;;;;;-143.98;100.00;68091.63;6253557;22;20046;-83
2021/05/16 00:15:55;;;;;;;18.75;14.02;;;;;;;-143.98;100.00;68091.63;6255093;22;20028;-83
2021/05/16 00:18:22;;;;;;;18.20;14.07;;;;;;;-143.98;100.00;68091.63;6283545;22;20152;-83
2021/05/16 00:20:51;;;;;;;17.73;12.55;;;;;;;-143.98;100.00;68091.63;6259537;22;20028;-83
2021/05/16 00:23:18;;;;;;;16.95;12.65;;;;;;;-143.98;100.00;68091.63;6281572;22;20035;-84
2021/05/16 00:25:45;;;;;;;14.50;11.90;;;;;;;-143.98;100.00;68091.63;6280902;22;20039;-84
2021/05/16 00:28:12;;;;;;;16.40;11.82;;;;;;;-143.98;100.00;68091.63;6279706;22;20105;-84
2021/05/16 00:30:42;;;;;;;14.65;11.98;;;;;;;-143.98;100.00;68091.63;6254495;22;20020;-84
2021/05/16 00:33:11;;;;;;;13.02;10.40;;;;;;;-143.98;100.00;68091.63;6253691;22;20032;-84
2021/05/16 00:35:39;;;;;;;14.88;11.57;;;;;;;-143.98;100.00;68091.63;6255609;22;20027;-84
2021/05/16 00:38:06;;;;;;;15.98;10.85;;;;;;;-143.98;100.00;68091.63;6280219;22;20446;-84
2021/05/16 00:40:34;;;;;;;12.18;10.07;;;;;;;-143.98;100.00;68091.63;6279082;22;20016;-84
2021/05/16 00:43:03;;;;;;;12.75;11.35;;;;;;;-143.98;100.00;68091.63;6253461;22;20047;-84
2021/05/16 00:45:36;;;;;;;14.57;11.07;;;;;;;-143.98;100.00;68091.63;6253838;22;20111;-84
2021/05/16 00:48:06;;;;;;;14.52;11.35;;;;;;;-143.98;100.00;68091.63;6279412;22;20024;-83
2021/05/16 00:50:41;;;;;;;16.52;12.05;;;;;;;-143.98;100.00;68091.63;6254631;22;20074;-85
2021/05/16 00:53:12;;;;;;;15.97;11.80;;;;;;;-143.98;100.00;68091.63;6280083;22;20024;-84
2021/05/16 00:55:42;;;;;;;15.18;12.23;;;;;;;-143.98;100.00;68091.63;6283370;22;20024;-85
2021/05/16 00:58:10;;;;;;;18.85;12.88;;;;;;;-143.98;100.00;68091.63;6281594;22;20027;-84
2021/05/16 01:00:42;;;;;;;15.88;12.60;;;;;;;-143.98;100.00;68091.63;6255885;22;20404;-83
2021/05/16 01:03:13;;;;;;;15.85;12.93;;;;;;;-143.98;100.00;68091.63;6256267;22;20086;-84
2021/05/16 01:05:44;;;;;;;16.95;13.60;;;;;;;-143.98;100.00;68091.63;6281346;22;20031;-83
2021/05/16 01:08:12;;;;;;;20.30;12.77;;;;;;;-143.98;100.00;68091.63;6281826;22;20079;-84
2021/05/16 01:10:43;;;;;;;15.93;12.38;;;;;;;-143.98;100.00;68091.63;6254982;22;20034;-83
2021/05/16 01:13:12;;;;;;;13.10;11.30;;;;;;;-143.98;100.00;68091.63;6280919;22;20028;-83
2021/05/16 01:15:43;;;;;;;13.60;11.65;;;;;;;-143.98;100.00;68091.63;6255833;22;20016;-84
2021/05/16 01:18:11;;;;;;;15.93;11.48;;;;;;;-143.98;100.00;68091.63;6256026;22;20042;-84
2021/05/16 01:20:43;;;;;;;13.60;10.32;;;;;;;-143.98;100.00;68091.63;6283431;22;20028;-85
2021/05/16 01:23:20;;;;;;;14.50;10.65;;;;;;;-143.98;100.00;68091.63;6255628;22;20046;-84
2021/05/16 01:25:49;;;;;;;14.02;11.32;;;;;;;-143.98;100.00;68091.63;6281160;22;20081;-84
2021/05/16 01:28:17;;;;;;;12.82;10.68;;;;;;;-143.98;100.00;68091.63;6255340;22;20082;-84
2021/05/16 01:30:46;;;;;;;11.27;9.40;;;;;;;-143.98;100.00;68091.63;6254480;22;20079;-84
2021/05/16 01:33:13;;;;;;;11.18;9.15;;;;;;;-143.98;100.00;68091.63;6255310;22;20027;-84
2021/05/16 01:35:40;;;;;;;11.98;9.77;;;;;;;-143.98;100.00;68091.63;6282258;22;20023;-84
2021/05/16 01:38:11;;;;;;;10.48;9.38;;;;;;;-143.98;100.00;68091.63;6253979;22;20020;-83
2021/05/16 01:40:42;;;;;;;11.48;9.82;;;;;;;-143.98;100.00;68091.63;6253827;22;20034;-83
2021/05/16 01:43:10;;;;;;;9.30;8.30;;;;;;;-143.98;100.00;68091.63;6254624;22;20034;-83
2021/05/16 01:45:41;;;;;;;9.38;7.90;;;;;;;-143.98;100.00;68091.63;6290185;22;20020;-83
2021/05/16 01:48:08;;;;;;;11.30;8.90;;;;;;;-143.98;100.00;68091.63;6288936;22;20234;-83
2021/05/16 01:50:36;;;;;;;10.43;9.07;;;;;;;-143.98;100.00;68091.63;6284731;22;20050;-83
2021/05/16 01:53:06;;;;;;;10.18;8.50;;;;;;;-143.98;100.00;68091.63;6253398;22;20015;-83
2021/05/16 01:55:36;;;;;;;10.55;9.18;;;;;;;-143.98;100.00;68091.63;6277162;22;20024;-83
2021/05/16 01:58:06;;;;;;;10.40;9.27;;;;;;;-143.98;100.00;68091.63;6253826;22;20028;-83
2021/05/16 02:00:34;;;;;;;9.82;8.45;;;;;;;-143.98;100.00;68091.63;6278739;22;20020;-83
2021/05/16 02:03:07;;;;;;;14.20;10.43;;;;;;;-143.98;100.00;68091.63;6282395;22;20034;-83
2021/05/16 02:05:50;;;;;;;12.40;9.27;;;;;;;-143.98;100.00;68091.63;6255666;22;20032;-83
2021/05/16 02:08:19;;;;;;;11.32;8.70;;;;;;;-143.98;100.00;68091.63;6289103;22;20030;-83
2021/05/16 02:10:46;;;;;;;12.73;9.15;;;;;;;-143.98;100.00;68091.63;6267310;22;20030;-83
2021/05/16 02:13:22;;;;;;;10.38;9.27;;;;;;;-143.98;100.00;68091.63;6291378;22;20032;-83
2021/05/16 02:15:51;;;;;;;11.73;9.63;;;;;;;-143.98;100.00;68091.63;6290394;22;20030;-83
2021/05/16 02:18:18;;;;;;;11.45;8.82;;;;;;;-143.98;100.00;68091.63;6267017;22;20028;-83
2021/05/16 02:20:45;;;;;;;11.60;9.90;;;;;;;-143.98;100.00;68091.63;6290612;22;20023;-83
2021/05/16 02:23:12;;;;;;;12.77;9.68;;;;;;;-143.98;100.00;68091.63;6292182;22;20395;-83
2021/05/16 02:25:40;;;;;;;13.07;11.30;;;;;;;-143.98;100.00;68091.63;6292513;22;20034;-83
2021/05/16 02:28:08;;;;;;;11.40;10.05;;;;;;;-143.98;100.00;68091.63;6286972;22;20031;-83
2021/05/16 02:30:35;;;;;;;13.95;11.13;;;;;;;-143.98;100.00;68091.63;6280726;22;20034;-83
2021/05/16 02:33:08;;;;;;;16.95;10.70;;;;;;;-143.98;100.00;68091.63;6281803;22;20098;-83
2021/05/16 02:35:35;;;;;;;12.25;10.70;;;;;;;-143.98;100.00;68091.63;6257583;22;20032;-83
2021/05/16 02:38:03;;;;;;;13.25;11.13;;;;;;;-143.98;100.00;68091.63;6258573;22;20110;-84
2021/05/16 02:40:30;;;;;;;11.93;10.65;;;;;;;-143.98;100.00;68091.63;6281797;22;20034;-83
2021/05/16 02:42:58;;;;;;;13.25;10.77;;;;;;;-143.98;100.00;68091.63;6257043;22;20420;-83
2021/05/16 02:45:31;;;;;;;16.50;12.25;;;;;;;-143.98;100.00;68091.63;6283647;22;20023;-83
2021/05/16 02:47:58;;;;;;;14.48;11.63;;;;;;;-143.98;100.00;68091.63;6286611;22;20027;-83
2021/05/16 02:50:25;;;;;;;14.18;11.68;;;;;;;-143.98;100.00;68091.63;6263534;22;20016;-83
2021/05/16 02:52:56;;;;;;;20.35;12.75;;;;;;;-143.98;100.00;68091.63;6274469;22;20028;-83
2021/05/16 02:55:23;;;;;;;14.30;12.20;;;;;;;-143.98;100.00;68091.63;6298151;22;20079;-82
2021/05/16 02:57:50;;;;;;;13.30;11.45;;;;;;;-143.98;100.00;68091.63;6290889;22;20028;-82
2021/05/16 03:00:18;;;;;;;15.02;11.57;;;;;;;-143.98;100.00;68091.63;6257604;22;20083;-82
2021/05/16 03:02:45;;;;;;;13.68;11.38;;;;;;;-143.98;100.00;68091.63;6267293;22;20012;-82
2021/05/16 03:05:12;;;;;;;14.35;10.32;;;;;;;-143.98;100.00;68091.63;6274493;22;20012;-82
2021/05/16 03:07:39;;;;;;;13.80;11.43;;;;;;;-143.98;100.00;68091.63;6275073;22;20059;-82
2021/05/16 03:10:07;;;;;;;13.00;10.60;;;;;;;-143.98;100.00;68091.63;6274378;22;20008;-82
2021/05/16 03:12:34;;;;;;;12.43;10.40;;;;;;;-143.98;100.00;68091.63;6283465;22;20275;-82
2021/05/16 03:15:01;;;;;;;13.57;11.05;;;;;;;-143.98;100.00;68091.63;6282165;22;20032;-82
2021/05/16 03:17:38;;;;;;;14.45;11.85;;;;;;;-143.98;100.00;68091.63;6281048;22;20065;-82
2021/05/16 03:20:06;;;;;;;12.45;10.38;;;;;;;-143.98;100.00;68091.63;6279534;22;20019;-81
2021/05/16 03:22:33;;;;;;;13.38;10.93;;;;;;;-143.98;100.00;68091.63;6255795;22;20027;-83
2021/05/16 03:25:05;;;;;;;14.63;11.75;;;;;;;-143.98;100.00;68091.63;6254934;22;20027;-83
2021/05/16 03:27:35;;;;;;;13.95;10.98;;;;;;;-143.98;100.00;68091.63;6281143;22;20028;-83
2021/05/16 03:30:05;;;;;;;13.18;10.75;;;;;;;-143.98;100.00;68091.63;6230364;22;20464;-82
2021/05/16 03:32:40;;;;;;;17.23;10.95;;;;;;;-143.98;100.00;68091.63;6256256;22;20110;-83
2021/05/16 03:35:12;;;;;;;12.60;10.75;;;;;;;-143.98;100.00;68091.63;6282091;22;20030;-82
2021/05/16 03:37:40;;;;;;;13.57;10.60;;;;;;;-143.98;100.00;68091.63;6255981;22;20028;-83
2021/05/16 03:40:12;;;;;;;11.93;10.73;;;;;;;-143.98;100.00;68091.63;6281918;22;20038;-82
2021/05/16 03:42:39;;;;;;;12.60;10.80;;;;;;;-143.98;100.00;68091.63;6281365;22;20023;-82
2021/05/16 03:45:08;;;;;;;12.55;10.90;;;;;;;-143.98;100.00;68091.63;6256246;22;20016;-83
2021/05/16 03:47:36;;;;;;;11.45;10.13;;;;;;;-143.98;100.00;68091.63;6257126;22;20097;-83
2021/05/16 03:50:04;;;;;;;12.88;10.05;;;;;;;-143.98;100.00;68091.63;6255309;22;20076;-83
2021/05/16 03:52:31;;;;;;;16.27;11.85;;;;;;;-143.98;100.00;68091.63;6255780;22;20062;-83
2021/05/16 03:55:01;;;;;;;15.32;12.38;;;;;;;-143.98;100.00;68091.63;6281945;22;20147;-82
2021/05/16 03:57:28;;;;;;;12.73;11.07;;;;;;;-143.98;100.00;68091.63;6282308;22;20028;-82
2021/05/16 03:59:55;;;;;;;14.80;11.38;;;;;;;-143.98;100.00;68091.63;6255633;22;20182;-82
2021/05/16 04:02:21;;;;;;;13.75;10.55;;;;;;;-143.98;100.00;68091.63;6255322;22;20364;-82
2021/05/16 04:04:49;;;;;;;12.38;10.63;;;;;;;-143.98;100.00;68091.63;6281712;22;20023;-82
2021/05/16 04:07:15;;;;;;;12.20;10.82;;;;;;;-143.98;100.00;68091.63;6281141;22;20133;-82
2021/05/16 04:09:42;;;;;;;14.38;9.73;;;;;;;-143.98;100.00;68091.63;6256591;22;20459;-83
2021/05/16 04:12:09;;;;;;;13.18;10.85;;;;;;;-143.98;100.00;68091.63;6281331;22;20104;-82
2021/05/16 04:14:36;;;;;;;14.38;10.85;;;;;;;-143.98;100.00;68091.63;6282800;22;20271;-83
2021/05/16 04:17:03;;;;;;;13.77;11.13;;;;;;;-143.98;100.00;68091.63;6256303;22;20077;-83
2021/05/16 04:19:30;;;;;;;13.05;10.05;;;;;;;-143.98;100.00;68091.63;6256638;22;20226;-83
2021/05/16 04:21:57;;;;;;;13.70;11.50;;;;;;;-143.98;100.00;68091.63;6272632;22;20046;-82
2021/05/16 04:24:25;;;;;;;12.43;10.75;;;;;;;-143.98;100.00;68091.63;6298824;22;20042;-82
2021/05/16 04:26:55;;;;;;;13.40;11.35;;;;;;;-143.98;100.00;68091.63;6298670;22;20024;-83
2021/05/16 04:29:22;;;;;;;16.58;12.15;;;;;;;-143.98;100.00;68091.63;6297241;22;20036;-81
2021/05/16 04:31:49;;;;;;;18.65;13.02;;;;;;;-143.98;100.00;68091.63;6295717;22;20028;-82
2021/05/16 04:34:16;;;;;;;13.63;10.55;;;;;;;-143.98;100.00;68091.63;6287267;22;20024;-82
2021/05/16 04:36:52;;;;;;;17.00;12.85;;;;;;;-143.98;100.00;68091.63;6260716;22;20027;-83
2021/05/16 04:39:19;;;;;;;17.42;14.52;;;;;;;-143.98;100.00;68091.63;6285342;22;20030;-83
2021/05/16 04:41:46;;;;;;;17.55;14.88;;;;;;;-143.98;100.00;68091.63;6258839;22;20024;-83
2021/05/16 04:44:13;;;;;;;18.30;14.93;;;;;;;-143.98;100.00;68091.63;6258913;22;20023;-83
2021/05/16 04:46:40;;;;;;;18.13;14.63;;;;;;;-143.98;100.00;68091.63;6291586;22;20024;-83
2021/05/16 04:49:10;;;;;;;16.55;14.13;;;;;;;-143.98;100.00;68091.63;6274036;22;20023;-83
2021/05/16 04:51:37;;;;;;;17.38;14.95;;;;;;;-143.98;100.00;68091.63;6299157;22;20015;-83
2021/05/16 04:54:04;;;;;;;18.20;14.73;;;;;;;-143.98;100.00;68091.63;6298014;22;20131;-82
2021/05/16 04:56:34;;;;;;;18.55;15.20;;;;;;;-143.98;100.00;68091.63;6288715;22;20154;-83
2021/05/16 04:59:04;;;;;;;16.70;14.57;;;;;;;-143.98;100.00;68091.63;6260560;22;20099;-83
2021/05/16 05:01:31;;;;;;;19.92;15.07;;;;;;;-143.98;100.00;68091.63;6279831;22;20023;-82
2021/05/16 05:03:59;;;;;;;17.08;14.82;;;;;;;-143.98;100.00;68091.63;6282129;22;20077;-82
2021/05/16 05:06:29;;;;;;;19.27;14.35;;;;;;;-143.98;100.00;68091.63;6283331;22;20463;-82
2021/05/16 05:08:58;;;;;;;19.25;15.15;;;;;;;-143.98;100.00;68091.63;6257025;22;20026;-82
2021/05/16 05:11:25;;;;;;;19.67;14.82;;;;;;;-143.98;100.00;68091.63;6282443;22;20047;-82
2021/05/16 05:13:52;;;;;;;17.05;14.68;;;;;;;-143.98;100.00;68091.63;6257812;22;20028;-83
2021/05/16 05:16:22;;;;;;;19.63;15.20;;;;;;;-143.98;100.00;68091.63;6281898;22;20093;-83
2021/05/16 05:18:49;;;;;;;20.40;15.35;;;;;;;-143.98;100.00;68091.63;6279806;22;20043;-83
2021/05/16 05:21:16;;;;;;;17.85;14.65;;;;;;;-143.98;100.00;68091.63;6279635;22;20051;-81
2021/05/16 05:23:53;;;;;;;19.08;14.73;;;;;;;-143.98;100.00;68091.63;6253763;22;20035;-81
2021/05/16 05:26:20;;;;;;;19.52;15.60;;;;;;;-143.98;100.00;68091.63;6278994;22;20043;-82
2021/05/16 05:28:47;;;;;;;19.30;14.98;;;;;;;-143.98;100.00;68091.63;6253194;22;20032;-81
2021/05/16 05:31:14;;;;;;;18.77;14.13;;;;;;;-143.98;100.00;68091.63;6276791;22;20317;-82
2021/05/16 05:33:41;;;;;;;20.50;15.40;;;;;;;-143.98;100.00;68091.63;6279829;22;20031;-81
2021/05/16 05:36:08;;;;;;;21.00;16.45;;;;;;;-143.98;100.00;68091.63;6279094;22;20267;-81
2021/05/16 05:38:35;;;;;;;20.67;16.17;;;;;;;-143.98;100.00;68091.63;6253958;22;20282;-81
2021/05/16 05:41:02;;;;;;;24.90;16.63;;;;;;;-143.98;100.00;68091.63;6253111;22;20207;-81
2021/05/16 05:43:29;;;;;;;19.85;15.45;;;;;;;-143.98;100.00;68091.63;6253577;22;20028;-81
2021/05/16 05:45:56;;;;;;;22.30;17.42;;;;;;;-143.98;100.00;68091.63;6279512;22;20054;-81
2021/05/16 05:48:23;;;;;;;27.75;17.92;;;;;;;-143.98;100.00;68091.63;6281150;22;20396;-81
2021/05/16 05:50:53;;;;;;;24.20;18.33;;;;;;;-143.98;100.00;68091.63;6280714;22;20085;-82
2021/05/16 05:53:21;;;;;;;27.73;16.17;;;;;;;-143.98;100.00;68091.63;6253253;22;20097;-81
2021/05/16 05:55:48;;;;;;;20.77;16.45;;;;;;;-143.98;100.00;68091.63;6280191;22;20405;-82
2021/05/16 05:58:16;;;;;;;22.00;16.40;;;;;;;-143.98;100.00;68091.63;6278278;22;20118;-81
2021/05/16 06:00:45;;;;;;;23.63;16.05;;;;;;;-143.98;100.00;68091.63;6255137;22;20023;-81
2021/05/16 06:03:15;;;;;;;28.20;17.30;;;;;;;-143.98;100.00;68091.63;6258124;22;20355;-82
2021/05/16 06:05:43;;;;;;;24.90;17.40;;;;;;;-143.98;100.00;68091.63;6296954;22;20175;-82
2021/05/16 06:08:15;;;;;;;25.65;17.83;;;;;;;-143.98;100.00;68091.63;6296536;22;20088;-82
2021/05/16 06:10:42;;;;;;;23.17;16.60;;;;;;;-143.98;100.00;68091.63;6270622;22;20072;-82
2021/05/16 06:13:09;;;;;;;25.27;16.67;;;;;;;-143.98;100.00;68091.63;6288502;22;20405;-82
2021/05/16 06:15:45;;;;;;;23.83;16.42;;;;;;;-143.98;100.00;68091.63;6289636;22;20043;-82
2021/05/16 06:18:15;;;;;;;22.52;14.45;;;;;;;-143.98;100.00;68091.63;6271276;22;20050;-83
2021/05/16 06:20:44;;;;;;;27.90;16.23;;;;;;;-143.98;100.00;68091.63;6258620;22;20039;-82
2021/05/16 06:23:15;;;;;;;22.02;15.82;;;;;;;-143.98;100.00;68091.63;6257156;22;20023;-82
2021/05/16 06:25:47;;;;;;;21.15;14.32;;;;;;;-143.98;100.00;68091.63;6282194;22;20028;-83
2021/05/16 06:28:15;;;;;;;21.38;13.35;;;;;;;-143.98;100.00;68091.63;6255975;22;20050;-83
2021/05/16 06:30:42;;;;;;;19.30;13.07;;;;;;;-143.98;100.00;68091.63;6264238;22;20027;-83
2021/05/16 06:33:10;;;;;;;23.33;15.18;;;;;;;-143.98;100.00;68091.63;6282379;22;20091;-83
2021/05/16 06:35:39;;;;;;;27.83;15.05;;;;;;;-143.98;100.00;68091.63;6256375;22;20111;-82
2021/05/16 06:38:06;;;;;;;28.63;15.68;;;;;;;-143.98;100.00;68091.63;6257121;22;20027;-83
2021/05/16 06:40:34;;;;;;;26.38;15.45;;;;;;;-143.98;100.00;68091.63;6281460;22;20328;-82
2021/05/16 06:43:04;;;;;;;22.48;14.40;;;;;;;-143.98;100.00;68091.63;6254987;22;20028;-83
2021/05/16 06:45:38;;;;;;;26.40;15.45;;;;;;;-143.98;100.00;68091.63;6282810;22;20058;-83
2021/05/16 06:48:09;;;;;;;27.63;16.08;;;;;;;-143.98;100.00;68091.63;6284161;22;20191;-83
2021/05/16 06:50:36;;;;;;;30.25;16.25;;;;;;;-143.98;100.00;68091.63;6283016;22;20024;-82
2021/05/16 06:53:03;;;;;;;26.25;14.40;;;;;;;-143.98;100.00;68091.63;6281816;22;20024;-82
2021/05/16 06:55:31;;;;;;;23.73;13.63;;;;;;;-143.98;100.00;68091.63;6281770;22;20024;-82
2021/05/16 06:57:58;;;;;;;23.67;13.80;;;;;;;-143.98;100.00;68091.63;6257457;22;20028;-83
2021/05/16 07:00:25;;;;;;;25.83;13.32;;;;;;;-143.98;100.00;68091.63;6255503;22;20077;-83
2021/05/16 07:02:58;;;;;;;23.85;13.13;;;;;;;-143.98;100.00;68091.63;6256444;22;20063;-83
2021/05/16 07:05:27;;;;;;;23.90;13.88;;;;;;;-143.98;100.00;68091.63;6255299;22;20028;-83
2021/05/16 07:07:55;;;;;;;26.17;13.38;;;;;;;-143.98;100.00;68091.63;6255880;22;20028;-84
2021/05/16 07:10:23;;;;;;;22.63;13.38;;;;;;;-143.98;100.00;68091.63;6255939;22;20051;-84
2021/05/16 07:12:50;;;;;;;23.80;12.82;;;;;;;-143.98;100.00;68091.63;6280896;22;20023;-82
2021/05/16 07:15:21;;;;;;;22.02;12.10;;;;;;;-143.98;100.00;68091.63;6256737;22;20024;-83
2021/05/16 07:17:49;;;;;;;18.30;11.00;;;;;;;-143.98;100.00;68091.63;6281048;22;20028;-83
2021/05/16 07:20:20;;;;;;;22.20;11.45;;;;;;;-143.98;100.00;68091.63;6283337;22;20042;-83
2021/05/16 07:22:51;;;;;;;20.88;10.63;;;;;;;-143.98;100.00;68091.63;6255176;22;20240;-83
2021/05/16 07:25:18;;;;;;;20.80;10.95;;;;;;;-143.98;100.00;68091.63;6280614;22;20034;-84
2021/05/16 07:27:49;;;;;;;24.48;10.43;;;;;;;-143.98;100.00;68091.63;6280348;22;20066;-84
2021/05/16 07:30:18;;;;;;;20.38;10.63;;;;;;;-143.98;100.00;68091.63;6254997;22;20051;-84
2021/05/16 07:32:47;;;;;;;21.48;11.43;;;;;;;-143.98;100.00;68091.63;6280041;22;20192;-83
2021/05/16 07:35:15;;;;;;;17.75;11.07;;;;;;;-143.98;100.00;68091.63;6255901;22;20053;-83
2021/05/16 07:37:47;;;;;;;21.10;11.38;;;;;;;-143.98;100.00;68091.63;6280912;22;20077;-84
2021/05/16 07:40:19;;;;;;;23.58;11.13;;;;;;;-143.98;100.00;68091.63;6255932;22;20023;-84
2021/05/16 07:42:47;;;;;;;18.83;10.52;;;;;;;-143.98;100.00;68091.63;6281145;22;20019;-83
2021/05/16 07:45:14;;;;;;;24.52;11.40;;;;;;;-143.98;100.00;68091.63;6256737;22;20034;-84
2021/05/16 07:47:41;;;;;;;20.48;10.32;;;;;;;-143.98;100.00;68091.63;6256134;22;20027;-84
2021/05/16 07:50:10;;;;;;;23.05;10.73;;;;;;;-143.98;100.00;68091.63;6255804;22;20038;-84
2021/05/16 07:52:37;;;;;;;19.90;10.82;;;;;;;-143.98;100.00;68091.63;6282245;22;20085;-83
2021/05/16 07:55:06;;;;;;;18.88;8.70;;;;;;;-143.98;100.00;68091.63;6282892;22;20031;-84
2021/05/16 07:57:43;;;;;;;22.10;11.23;;;;;;;-143.98;100.00;68091.63;6283439;22;20028;-84
2021/05/16 08:00:12;;;;;;;15.80;9.18;;;;;;;-143.98;100.00;68091.63;6265359;22;20012;-84
2021/05/16 08:02:43;;;;;;;17.85;10.05;;;;;;;-143.98;100.00;68091.63;6293565;22;20077;-83
2021/05/16 08:05:12;;;;;;;16.35;10.00;;;;;;;-143.98;100.00;68091.63;6270032;22;20028;-84
2021/05/16 08:07:39;;;;;;;20.55;10.55;;;;;;;-143.98;100.00;68091.63;6258792;22;20034;-84
2021/05/16 08:10:07;;;;;;;23.95;10.57;;;;;;;-143.98;100.00;68091.63;6258938;22;20027;-84
2021/05/16 08:12:35;;;;;;;17.70;9.32;;;;;;;-143.98;100.00;68091.63;6280835;22;20038;-83
2021/05/16 08:15:06;;;;;;;18.77;9.43;;;;;;;-143.98;100.00;68091.63;6279436;22;20075;-84
2021/05/16 08:17:34;;;;;;;18.17;8.98;;;;;;;-143.98;100.00;68091.63;6255322;22;20023;-83
2021/05/16 08:20:07;;;;;;;22.60;9.85;;;;;;;-143.98;100.00;68091.63;6255761;22;20028;-83
2021/05/16 08:22:35;;;;;;;22.45;10.45;;;;;;;-143.98;100.00;68091.63;6254886;22;20024;-83
2021/05/16 08:25:04;;;;;;;16.77;9.20;;;;;;;-143.98;100.00;68091.63;6255912;22;20028;-83
2021/05/16 08:27:31;;;;;;;17.63;9.80;;;;;;;-143.98;100.00;68091.63;6281477;22;20084;-84
2021/05/16 08:29:59;;;;;;;19.02;10.02;;;;;;;-143.98;100.00;68091.63;6257437;22;20054;-84
2021/05/16 08:32:26;;;;;;;19.75;9.35;;;;;;;-143.98;100.00;68091.63;6280081;22;20081;-84
2021/05/16 08:34:54;;;;;;;21.42;8.85;;;;;;;-143.98;100.00;68091.63;6279887;22;20053;-84
2021/05/16 08:37:21;;;;;;;14.98;8.88;;;;;;;-143.98;100.00;68091.63;6252054;22;20378;-84
2021/05/16 08:39:48;;;;;;;17.92;9.27;;;;;;;-143.98;100.00;68091.63;6252963;22;20050;-84
2021/05/16 08:42:16;;;;;;;19.50;8.82;;;;;;;-143.98;100.00;68091.63;6252856;22;20194;-83
2021/05/16 08:44:45;;;;;;;16.88;9.05;;;;;;;-143.98;100.00;68091.63;6254634;22;20047;-84
2021/05/16 08:47:15;;;;;;;16.27;7.93;;;;;;;-143.98;100.00;68091.63;6277412;22;20442;-86
2021/05/16 08:49:43;;;;;;;17.77;8.05;;;;;;;-143.98;100.00;68091.63;6253651;22;20247;-84
2021/05/16 08:52:14;;;;;;;15.07;7.85;;;;;;;-143.98;100.00;68091.63;6278635;22;20089;-85
2021/05/16 08:54:52;;;;;;;19.15;7.95;;;;;;;-143.98;100.00;68091.63;6250811;22;20089;-84
2021/05/16 08:57:29;;;;;;;15.38;8.57;;;;;;;-143.98;100.00;68091.63;6256533;22;20103;-83
2021/05/16 09:00:07;;;;;;;19.95;9.40;;;;;;;-143.98;100.00;68091.63;6277442;22;20023;-83
2021/05/16 09:03:16;;;;;;;21.38;8.98;;;;;;;-143.98;100.00;68091.63;6275269;22;20077;-83
2021/05/16 09:05:54;;;;;;;18.63;8.98;;;;;;;-143.98;100.00;68091.63;6273553;22;20174;-84
2021/05/16 09:08:22;;;;;;;15.10;9.13;;;;;;;-143.98;100.00;68091.63;6272277;22;20409;-82
2021/05/16 09:10:57;;;;;;;18.42;9.00;;;;;;;-143.98;100.00;68091.63;6272601;22;20301;-84
2021/05/16 09:13:32;;;;;;;16.65;9.73;;;;;;;-143.98;100.00;68091.63;6253570;22;20031;-83
2021/05/16 09:16:00;;;;;;;20.05;10.20;;;;;;;-143.98;100.00;68091.63;6292969;22;20123;-83
2021/05/16 09:18:41;;;;;;;22.55;10.77;;;;;;;-143.98;100.00;68091.63;6292684;22;20032;-84
2021/05/16 09:21:31;;;;;;;20.52;9.80;;;;;;;-143.98;100.00;68091.63;6284565;22;20023;-85
2021/05/16 09:24:02;;;;;;;15.13;9.95;;;;;;;-143.98;100.00;68091.63;6259888;22;20323;-85
2021/05/16 09:26:52;;;;;;;16.50;9.48;;;;;;;-143.98;100.00;68091.63;6292698;22;20034;-84
2021/05/16 09:29:26;;;;;;;24.17;10.23;;;;;;;-143.98;100.00;68091.63;6259847;22;20036;-84
2021/05/16 09:31:54;;;;;;;23.95;9.70;;;;;;;-143.98;100.00;68091.63;6280022;22;20413;-84
2021/05/16 09:34:22;;;;;;;17.20;9.55;;;;;;;-143.98;100.00;68091.63;6254334;22;20028;-85
2021/05/16 09:36:51;;;;;;;18.65;10.60;;;;;;;-143.98;100.00;68091.63;6277528;22;20066;-84
2021/05/16 09:39:35;;;;;;;21.58;8.85;;;;;;;-143.98;100.00;68091.63;6276304;22;20417;-84
2021/05/16 09:42:19;;;;;;;17.13;8.98;;;;;;;-143.98;100.00;68091.63;6249706;22;20036;-84
2021/05/16 09:44:51;;;;;;;16.30;8.27;;;;;;;-143.98;100.00;68091.63;6253166;22;20047;-85
2021/05/16 09:47:28;;;;;;;15.43;8.10;;;;;;;-143.98;100.00;68091.63;6272151;22;20321;-84
2021/05/16 09:49:59;;;;;;;16.48;8.45;;;;;;;-143.98;100.00;68091.63;6248459;22;20086;-84
2021/05/16 09:52:29;;;;;;;18.88;9.13;;;;;;;-143.98;100.00;68091.63;6274447;22;20085;-84
2021/05/16 09:55:07;;;;;;;22.67;9.85;;;;;;;-143.98;100.00;68091.63;6246862;22;20544;-83
2021/05/16 09:57:36;;;;;;;17.83;9.82;;;;;;;-143.98;100.00;68091.63;6272362;22;20039;-83
2021/05/16 10:00:08;;;;;;;22.50;11.20;;;;;;;-143.98;100.00;68091.63;6247104;22;20409;-83
2021/05/16 10:02:36;;;;;;;23.65;11.38;;;;;;;-143.98;100.00;68091.63;6248544;22;20027;-84
2021/05/16 10:05:05;;;;;;;23.67;10.68;;;;;;;-143.98;100.00;68091.63;6247077;22;20444;-84
2021/05/16 10:07:32;;;;;;;19.50;11.07;;;;;;;-143.98;100.00;68091.63;6272459;22;20054;-84
2021/05/16 10:10:04;;;;;;;26.02;11.85;;;;;;;-143.98;100.00;68091.63;6281523;22;20024;-85
2021/05/16 10:12:32;;;;;;;22.88;11.38;;;;;;;-143.98;100.00;68091.63;6250720;22;20042;-83
2021/05/16 10:15:02;;;;;;;31.42;12.10;;;;;;;-143.98;100.00;68091.63;6253025;22;20217;-84
2021/05/16 10:17:35;;;;;;;26.67;11.88;;;;;;;-143.98;100.00;68091.63;6278978;22;20087;-82
2021/05/16 10:20:13;;;;;;;15.98;7.65;;;;;;;-143.98;100.00;68091.63;6254570;22;20023;-83
2021/05/16 10:22:41;;;;;;;23.25;9.30;;;;;;;-143.98;100.00;68091.63;6276755;22;20473;-82
2021/05/16 10:25:08;;;;;;;15.27;8.48;;;;;;;-143.98;100.00;68091.63;6280525;22;20031;-81
2021/05/16 10:27:46;;;;;;;19.75;8.68;;;;;;;-143.98;100.00;68091.63;6252878;22;20079;-84
2021/05/16 10:30:16;;;;;;;20.15;7.22;;;;;;;-143.98;100.00;68091.63;6275823;22;20027;-84
2021/05/16 10:32:46;;;;;;;18.15;7.00;;;;;;;-143.98;100.00;68091.63;6280324;22;20425;-83
2021/05/16 10:35:14;;;;;;;16.02;7.18;;;;;;;-143.98;100.00;68091.63;6279989;22;20034;-82
2021/05/16 10:37:53;;;;;;;16.17;8.45;;;;;;;-143.98;100.00;68091.63;6273281;22;20054;-83
2021/05/16 10:40:23;;;;;;;18.50;8.45;;;;;;;-143.98;100.00;68091.63;6272533;22;20333;-84
2021/05/16 10:43:25;;;;;;;19.27;10.35;;;;;;;-143.98;100.00;68091.63;6276619;22;20027;-82
2021/05/16 10:45:55;;;;;;;20.02;10.70;;;;;;;-143.98;100.00;68091.63;6255521;22;20057;-83
2021/05/16 10:48:34;;;;;;;28.52;10.68;;;;;;;-143.98;100.00;68091.63;6250294;22;20032;-85
2021/05/16 10:51:04;;;;;;;18.75;10.70;;;;;;;-143.98;100.00;68091.63;6250535;22;20098;-84
2021/05/16 10:53:36;;;;;;;22.20;11.90;;;;;;;-143.98;100.00;68091.63;6277006;22;20096;-84
2021/05/16 10:56:10;;;;;;;24.83;11.70;;;;;;;-143.98;100.00;68091.63;6277470;22;20201;-85
2021/05/16 10:58:46;;;;;;;22.98;10.43;;;;;;;-143.98;100.00;68091.63;6251284;22;20024;-84
2021/05/16 11:01:14;;;;;;;;;;;;;;;-143.98;100.00;68091.63;6250340;22;20038;-84
2021/05/16 11:03:53;;;;;;;17.35;10.48;;;;;;;-143.98;100.00;68091.63;6250529;22;19914;-83
2021/05/16 11:06:22;;;;;;;18.42;10.40;;;;;;;-143.98;100.00;68091.63;6249690;22;20043;-83
2021/05/16 11:09:10;;;;;;;20.38;9.45;;;;;;;-143.98;100.00;68091.63;6246334;22;20226;-82